Time;durP1;ratioP1;P1;durP2;ratioP2;P2;SDS_P1;SDS_P2;PMS_P1;PMS_P2;Temp;Humidity;BMP_temperature;BMP_pressure;BME280_temperature;BME280_humidity;BME280_pressure;Samples;Min_cycle;Max_cycle;Signal;HPM_P1;HPM_P2
2022/12/12 00:00:55;;;;;;;28.00;25.08;;;-3.70;99.90;;;;;;5068719;28;20443;-80
2022/12/12 00:03:20;;;;;;;26.13;23.45;;;-3.70;99.90;;;;;;5068576;28;20036;-80
2022/12/12 00:05:46;;;;;;;27.60;24.63;;;-3.80;99.90;;;;;;5068671;28;20032;-80
2022/12/12 00:08:12;;;;;;;32.95;26.17;;;-3.90;99.90;;;;;;5083236;28;20537;-79
2022/12/12 00:10:38;;;;;;;34.05;27.38;;;-3.80;99.90;;;;;;5068171;28;20063;-80
2022/12/12 00:13:04;;;;;;;28.92;26.02;;;-4.00;99.90;;;;;;5068396;28;20092;-80
2022/12/12 00:15:30;;;;;;;27.38;24.15;;;-4.20;99.90;;;;;;5083840;28;20029;-79
2022/12/12 00:17:56;;;;;;;34.10;28.23;;;-4.30;99.90;;;;;;5068314;28;20029;-80
2022/12/12 00:20:22;;;;;;;32.67;27.55;;;-4.30;99.90;;;;;;5067969;28;20096;-80
2022/12/12 00:22:48;;;;;;;35.70;27.45;;;-4.30;99.90;;;;;;5068195;28;20559;-80
2022/12/12 00:25:13;;;;;;;36.72;29.42;;;-4.30;99.90;;;;;;5067983;28;20033;-80
2022/12/12 00:27:39;;;;;;;34.08;27.05;;;-4.30;99.90;;;;;;5050385;28;20033;-80
2022/12/12 00:30:06;;;;;;;27.33;24.42;;;-4.40;99.90;;;;;;5067817;28;20031;-80
2022/12/12 00:32:33;;;;;;;30.73;26.00;;;-4.40;99.90;;;;;;5063157;28;20041;-80
2022/12/12 00:34:58;;;;;;;35.75;29.25;;;-4.40;99.90;;;;;;5047035;28;20034;-79
2022/12/12 00:37:24;;;;;;;28.30;25.48;;;-4.40;99.90;;;;;;5054764;28;20045;-79
2022/12/12 00:39:50;;;;;;;37.70;28.10;;;-4.20;99.90;;;;;;5060903;28;20057;-79
2022/12/12 00:42:16;;;;;;;29.90;26.58;;;-4.50;99.90;;;;;;5088045;28;20483;-80
2022/12/12 00:44:42;;;;;;;27.17;24.00;;;-4.50;99.90;;;;;;5087848;28;20076;-80
2022/12/12 00:47:07;;;;;;;27.38;24.45;;;-4.50;99.90;;;;;;5069950;28;20033;-80
2022/12/12 00:49:34;;;;;;;37.15;28.15;;;-4.60;99.90;;;;;;5085970;28;20024;-80
2022/12/12 00:52:00;;;;;;;34.40;30.10;;;-4.50;99.90;;;;;;5086349;28;20508;-80
2022/12/12 00:54:26;;;;;;;30.58;26.45;;;-4.50;99.90;;;;;;5087848;28;20021;-80
2022/12/12 00:56:52;;;;;;;34.88;27.50;;;-4.50;99.90;;;;;;5087388;28;20119;-80
2022/12/12 00:59:18;;;;;;;29.50;24.67;;;-4.60;99.90;;;;;;5086111;28;20024;-80
2022/12/12 01:01:45;;;;;;;30.83;26.85;;;-4.70;99.90;;;;;;5069535;28;20059;-80
2022/12/12 01:04:11;;;;;;;34.92;25.05;;;-4.70;99.90;;;;;;5086039;28;20036;-80
2022/12/12 01:06:37;;;;;;;37.67;27.88;;;-4.70;99.90;;;;;;5085955;28;20037;-79
2022/12/12 01:09:03;;;;;;;29.23;26.17;;;-4.70;99.90;;;;;;5087196;28;20089;-80
2022/12/12 01:11:29;;;;;;;28.52;24.63;;;-4.70;99.90;;;;;;5087103;28;20056;-80
2022/12/12 01:13:56;;;;;;;34.72;28.00;;;-4.70;99.90;;;;;;5087195;28;20029;-80
2022/12/12 01:16:23;;;;;;;33.58;25.80;;;-4.60;99.90;;;;;;5085933;28;20036;-80
2022/12/12 01:18:49;;;;;;;33.95;27.27;;;-4.60;99.90;;;;;;5085751;28;20032;-80
2022/12/12 01:21:17;;;;;;;30.33;26.10;;;-4.60;99.90;;;;;;5085741;28;20107;-80
2022/12/12 01:23:43;;;;;;;35.80;28.02;;;-4.60;99.90;;;;;;5087161;28;20028;-80
2022/12/12 01:26:15;;;;;;;34.15;28.02;;;-4.60;99.90;;;;;;5085605;28;20382;-80
2022/12/12 01:28:43;;;;;;;31.88;26.33;;;-4.60;99.90;;;;;;5086623;28;20105;-80
2022/12/12 01:31:09;;;;;;;28.33;25.10;;;-4.60;99.90;;;;;;5066799;28;20032;-80
2022/12/12 01:33:35;;;;;;;29.92;24.70;;;-4.00;99.90;;;;;;5066817;28;20021;-80
2022/12/12 01:36:04;;;;;;;28.88;24.67;;;-4.70;99.90;;;;;;5065499;28;20048;-80
2022/12/12 01:38:30;;;;;;;27.45;23.40;;;-4.70;99.90;;;;;;5061894;28;20045;-80
2022/12/12 01:40:56;;;;;;;30.27;24.40;;;-4.80;99.90;;;;;;5064677;28;20108;-80
2022/12/12 01:43:23;;;;;;;26.67;23.85;;;-4.80;99.90;;;;;;5066484;28;20103;-80
2022/12/12 01:45:58;;;;;;;32.75;24.98;;;-4.80;99.90;;;;;;5048871;28;20036;-80
2022/12/12 01:48:27;;;;;;;33.30;22.38;;;-4.70;99.90;;;;;;5066756;28;20036;-80
2022/12/12 01:50:54;;;;;;;37.33;26.83;;;-4.80;99.90;;;;;;5066037;28;20017;-80
2022/12/12 01:53:20;;;;;;;32.30;25.88;;;-4.80;99.90;;;;;;5066425;28;20037;-80
2022/12/12 01:55:48;;;;;;;35.72;26.98;;;-4.50;99.90;;;;;;5065159;28;20031;-80
2022/12/12 01:58:14;;;;;;;44.45;30.98;;;-4.60;99.90;;;;;;5048611;28;20055;-80
2022/12/12 02:00:42;;;;;;;31.95;27.75;;;-4.60;99.90;;;;;;5064785;28;20028;-79
2022/12/12 02:03:08;;;;;;;32.58;28.05;;;-4.50;99.90;;;;;;5065082;28;20032;-79
2022/12/12 02:05:42;;;;;;;36.25;26.38;;;-4.50;99.90;;;;;;5065103;28;20037;-80
2022/12/12 02:08:09;;;;;;;38.60;26.38;;;-4.40;99.90;;;;;;5064968;28;20037;-80
2022/12/12 02:10:36;;;;;;;30.10;26.80;;;-4.50;99.90;;;;;;5065969;28;20028;-80
2022/12/12 02:13:09;;;;;;;43.63;31.33;;;-4.60;99.90;;;;;;5064929;28;20029;-80
2022/12/12 02:15:52;;;;;;;37.92;29.25;;;-4.50;99.90;;;;;;5064941;28;20033;-80
2022/12/12 02:18:32;;;;;;;33.47;28.40;;;-4.40;99.90;;;;;;5066216;28;20048;-80
2022/12/12 02:21:19;;;;;;;34.33;26.30;;;-4.50;99.90;;;;;;5065691;28;20036;-80
2022/12/12 02:24:04;;;;;;;35.55;29.92;;;-4.60;99.90;;;;;;5064505;28;20121;-80
2022/12/12 02:26:51;;;;;;;42.42;28.92;;;-4.50;99.90;;;;;;5065982;28;20032;-80
2022/12/12 02:29:36;;;;;;;33.50;29.25;;;-4.40;99.90;;;;;;5061140;28;20037;-80
2022/12/12 02:32:11;;;;;;;51.22;32.75;;;-4.30;99.90;;;;;;5027873;28;20041;-80
2022/12/12 02:35:16;;;;;;;41.22;30.55;;;-4.20;99.90;;;;;;5059605;28;20033;-80
2022/12/12 02:38:12;;;;;;;37.00;29.88;;;-4.10;99.90;;;;;;5063865;28;20051;-80
2022/12/12 02:40:48;;;;;;;41.13;32.05;;;-4.10;99.90;;;;;;5087951;28;20016;-80
2022/12/12 02:43:35;;;;;;;38.00;30.40;;;-4.20;99.90;;;;;;5087680;28;20032;-80
2022/12/12 02:46:23;;;;;;;35.65;26.65;;;-4.20;99.90;;;;;;5106298;28;20052;-80
2022/12/12 02:49:03;;;;;;;43.42;30.25;;;-4.30;99.90;;;;;;5071337;28;20481;-80
2022/12/12 02:51:31;;;;;;;34.70;28.95;;;-4.50;99.90;;;;;;5070592;28;20036;-80
2022/12/12 02:54:03;;;;;;;39.20;27.27;;;-4.60;99.90;;;;;;5105947;28;20020;-80
2022/12/12 02:56:46;;;;;;;33.35;27.33;;;-4.70;99.90;;;;;;5071060;28;20032;-80
2022/12/12 02:59:24;;;;;;;32.63;25.42;;;-4.60;99.90;;;;;;5070967;28;20111;-80
2022/12/12 03:01:59;;;;;;;30.38;25.45;;;-4.70;99.90;;;;;;5087732;28;20390;-80
2022/12/12 03:08:05;;;;;;;30.90;25.63;;;-4.80;99.90;;;;;;5087503;28;20035;-80
2022/12/12 03:10:48;;;;;;;44.17;28.75;;;-4.80;99.90;;;;;;5105515;28;20035;-80
2022/12/12 03:13:20;;;;;;;39.25;29.17;;;-4.80;99.90;;;;;;5070812;28;20099;-80
2022/12/12 03:16:26;;;;;;;37.80;29.90;;;-3.20;99.90;;;;;;5070806;28;20032;-80
2022/12/12 03:18:59;;;;;;;35.35;28.08;;;-4.70;99.90;;;;;;5070909;28;20105;-80
2022/12/12 03:21:38;;;;;;;38.83;26.17;;;-4.70;99.90;;;;;;5087371;28;20043;-80
2022/12/12 03:24:30;;;;;;;23.52;20.85;;;-4.70;99.90;;;;;;5071005;28;20032;-80
2022/12/12 03:26:59;;;;;;;33.03;29.02;;;-4.80;99.90;;;;;;5053688;28;20040;-80
2022/12/12 03:29:31;;;;;;;42.23;29.40;;;-4.80;99.90;;;;;;5109060;28;20025;-80
2022/12/12 03:32:07;;;;;;;31.80;26.25;;;-4.70;99.90;;;;;;5087918;28;20032;-80
2022/12/12 03:34:41;;;;;;;38.60;28.90;;;-4.70;99.90;;;;;;5087349;28;20045;-80
2022/12/12 03:37:26;;;;;;;33.03;28.45;;;-4.80;99.90;;;;;;5087473;28;20048;-79
2022/12/12 03:40:17;;;;;;;35.10;28.23;;;-4.70;99.90;;;;;;5087401;28;20032;-80
2022/12/12 03:43:01;;;;;;;36.97;28.10;;;-4.80;99.90;;;;;;5088910;28;20028;-79
2022/12/12 03:45:33;;;;;;;38.67;28.80;;;-4.80;99.90;;;;;;5091017;28;20075;-80
2022/12/12 03:48:14;;;;;;;41.35;30.35;;;-4.80;99.90;;;;;;5090853;28;20032;-80
2022/12/12 03:50:45;;;;;;;34.70;28.88;;;-4.80;99.90;;;;;;5108789;28;20035;-80
2022/12/12 03:53:34;;;;;;;39.30;27.55;;;-4.80;99.90;;;;;;5091067;28;20032;-80
2022/12/12 03:56:21;;;;;;;34.40;28.98;;;-5.00;99.90;;;;;;5077819;28;20069;-80
2022/12/12 03:59:17;;;;;;;35.65;27.98;;;-5.20;99.90;;;;;;5090721;28;20028;-80
2022/12/12 04:02:08;;;;;;;37.13;29.27;;;-5.20;99.90;;;;;;5085433;28;20043;-80
2022/12/12 04:05:05;;;;;;;41.50;28.52;;;-5.10;99.90;;;;;;5090790;28;20560;-80
2022/12/12 04:07:30;;;;;;;43.13;28.05;;;-5.00;99.90;;;;;;5090204;28;20028;-80
2022/12/12 04:13:02;;;;;;;35.92;26.00;;;-5.30;99.90;;;;;;5090075;28;20032;-80
2022/12/12 04:15:34;;;;;;;36.95;30.70;;;-5.30;99.90;;;;;;5090524;28;20032;-80
2022/12/12 04:18:06;;;;;;;35.97;27.20;;;-5.30;99.90;;;;;;5089870;28;20024;-80
2022/12/12 04:24:02;;;;;;;37.10;26.50;;;-5.10;99.90;;;;;;5096870;28;20080;-80
2022/12/12 04:26:40;;;;;;;38.70;28.65;;;-5.20;99.90;;;;;;5108335;28;20071;-80
2022/12/12 04:29:08;;;;;;;33.35;25.83;;;-5.20;99.90;;;;;;5107988;28;20478;-80
2022/12/12 04:31:42;;;;;;;41.80;27.63;;;-5.30;99.90;;;;;;5090223;28;20032;-80
2022/12/12 04:34:20;;;;;;;36.58;27.17;;;-5.30;99.90;;;;;;5108203;28;20038;-79
2022/12/12 04:36:48;;;;;;;34.70;25.98;;;-5.20;99.90;;;;;;5108216;28;20055;-80
2022/12/12 04:39:16;;;;;;;32.40;27.13;;;-5.20;99.90;;;;;;5089257;28;20054;-80
2022/12/12 04:41:44;;;;;;;40.08;28.83;;;-5.10;99.90;;;;;;5108252;28;20032;-80
2022/12/12 04:44:11;;;;;;;35.50;28.25;;;-5.00;99.90;;;;;;5108004;28;20705;-79
2022/12/12 04:46:39;;;;;;;32.10;25.70;;;-5.00;99.90;;;;;;5073167;28;20032;-80
2022/12/12 04:49:12;;;;;;;31.50;25.73;;;-5.00;99.90;;;;;;5089546;28;20036;-80
2022/12/12 04:51:43;;;;;;;39.40;28.13;;;-5.10;99.90;;;;;;5073140;28;20035;-80
2022/12/12 04:54:18;;;;;;;40.17;30.23;;;-5.20;99.90;;;;;;5107560;28;20073;-80
2022/12/12 04:56:47;;;;;;;43.47;26.48;;;-5.10;99.90;;;;;;5089647;28;20064;-80
2022/12/12 04:59:15;;;;;;;33.00;24.88;;;-5.10;99.90;;;;;;5089435;28;20054;-79
2022/12/12 05:01:47;;;;;;;41.15;27.20;;;-5.10;99.90;;;;;;5089844;28;20032;-80
2022/12/12 05:04:23;;;;;;;37.88;29.08;;;-5.10;99.90;;;;;;5107548;28;20024;-80
2022/12/12 05:06:55;;;;;;;34.63;25.73;;;-5.10;99.90;;;;;;5089576;28;20042;-80
2022/12/12 05:09:21;;;;;;;39.88;30.15;;;-5.10;99.90;;;;;;5107233;28;20053;-79
2022/12/12 05:11:47;;;;;;;43.17;27.80;;;-5.20;99.90;;;;;;5107616;28;20028;-79
2022/12/12 05:14:14;;;;;;;38.53;26.33;;;-5.10;99.90;;;;;;5089379;28;20025;-79
2022/12/12 05:16:46;;;;;;;30.63;27.27;;;-5.20;99.90;;;;;;5072621;28;20046;-79
2022/12/12 05:19:11;;;;;;;35.15;25.02;;;-5.00;99.90;;;;;;5107135;28;20024;-79
2022/12/12 05:21:37;;;;;;;40.72;26.98;;;-5.10;99.90;;;;;;5107302;28;20042;-80
2022/12/12 05:24:03;;;;;;;38.38;28.95;;;-5.00;99.90;;;;;;5089318;28;20042;-80
2022/12/12 05:26:32;;;;;;;37.25;26.15;;;-5.00;99.90;;;;;;5107460;28;20592;-80
2022/12/12 05:28:59;;;;;;;33.25;26.40;;;-5.00;99.90;;;;;;5106699;28;20228;-79
2022/12/12 05:31:25;;;;;;;41.90;29.38;;;-4.90;99.90;;;;;;5106929;28;20032;-79
2022/12/12 05:33:51;;;;;;;34.25;25.58;;;-4.90;99.90;;;;;;5089119;28;20024;-79
2022/12/12 05:36:17;;;;;;;39.03;27.50;;;-4.90;99.90;;;;;;5105143;28;20016;-79
2022/12/12 05:38:44;;;;;;;38.83;27.45;;;-4.90;99.90;;;;;;5088196;28;20060;-79
2022/12/12 05:41:10;;;;;;;43.67;26.35;;;-5.00;99.90;;;;;;5088879;28;20024;-80
2022/12/12 05:43:37;;;;;;;33.75;25.88;;;-5.10;99.90;;;;;;5106783;28;20089;-79
2022/12/12 05:46:03;;;;;;;53.60;42.55;;;;;;;;;;5106560;28;20028;-79
2022/12/12 05:48:29;;;;;;;53.00;36.20;;;-5.30;99.90;;;;;;5106904;28;20020;-79
2022/12/12 05:50:55;;;;;;;45.67;30.88;;;-5.30;99.90;;;;;;5106458;28;20024;-79
2022/12/12 05:53:22;;;;;;;42.53;28.52;;;-5.30;99.90;;;;;;5088349;28;20036;-79
2022/12/12 05:55:51;;;;;;;42.45;30.45;;;-5.40;99.90;;;;;;5067710;28;20036;-79
2022/12/12 05:58:18;;;;;;;35.58;27.90;;;-5.20;99.90;;;;;;5079452;28;20162;-79
2022/12/12 06:00:47;;;;;;;42.30;32.88;;;-5.40;99.90;;;;;;5080739;28;20471;-80
2022/12/12 06:03:13;;;;;;;38.13;34.13;;;-5.30;99.90;;;;;;5069719;28;20085;-79
2022/12/12 06:05:39;;;;;;;37.90;30.25;;;-5.40;99.90;;;;;;5081174;28;20039;-80
2022/12/12 06:08:05;;;;;;;35.90;29.23;;;-5.40;99.90;;;;;;5071277;28;20024;-79
2022/12/12 06:10:31;;;;;;;42.28;32.60;;;-5.40;99.90;;;;;;5071136;28;20057;-79
2022/12/12 06:12:57;;;;;;;39.53;30.83;;;-5.40;99.90;;;;;;5094571;28;20032;-79
2022/12/12 06:15:23;;;;;;;34.05;25.02;;;-5.60;99.90;;;;;;5068140;28;20027;-79
2022/12/12 06:17:52;;;;;;;30.38;25.48;;;-5.70;99.90;;;;;;5105983;28;20020;-79
2022/12/12 06:20:19;;;;;;;37.53;28.00;;;-5.80;99.90;;;;;;5069803;28;20040;-79
2022/12/12 06:22:46;;;;;;;34.97;23.20;;;;;;;;;;5087665;28;20478;-80
2022/12/12 06:25:12;;;;;;;35.17;25.85;;;-6.30;99.90;;;;;;5078429;28;20090;-79
2022/12/12 06:27:37;;;;;;;35.10;27.13;;;-5.80;99.90;;;;;;5091399;28;20028;-80
2022/12/12 06:30:05;;;;;;;36.67;26.17;;;-5.70;99.90;;;;;;5067980;28;20592;-79
2022/12/12 06:32:31;;;;;;;31.27;24.20;;;-5.80;99.90;;;;;;5067867;28;20044;-79
2022/12/12 06:34:57;;;;;;;35.03;24.35;;;-5.90;99.90;;;;;;5085859;28;20024;-79
2022/12/12 06:37:23;;;;;;;30.63;23.27;;;-5.90;99.90;;;;;;5078755;28;20043;-79
2022/12/12 06:39:49;;;;;;;38.47;25.90;;;-5.90;99.90;;;;;;5106176;28;20024;-79
2022/12/12 06:42:14;;;;;;;29.83;24.60;;;-6.00;99.90;;;;;;5105670;28;20051;-79
2022/12/12 06:44:41;;;;;;;31.00;25.52;;;-6.10;99.90;;;;;;5087683;28;20107;-79
2022/12/12 06:47:07;;;;;;;34.22;25.92;;;-6.20;99.90;;;;;;5106249;28;20037;-79
2022/12/12 06:49:33;;;;;;;32.33;26.52;;;-6.20;99.90;;;;;;5088025;28;20103;-79
2022/12/12 06:52:00;;;;;;;35.50;26.17;;;;;;;;;;5071027;28;20047;-79
2022/12/12 06:54:25;;;;;;;42.97;32.13;;;-6.10;99.90;;;;;;5087290;28;20033;-79
2022/12/12 06:56:51;;;;;;;39.10;29.42;;;-6.10;99.90;;;;;;5087280;28;20063;-79
2022/12/12 06:59:17;;;;;;;27.08;22.85;;;-5.90;99.90;;;;;;5067552;28;20068;-79
2022/12/12 07:01:44;;;;;;;36.47;24.77;;;-6.00;99.90;;;;;;5103619;28;20024;-79
2022/12/12 07:04:11;;;;;;;41.53;26.60;;;-5.90;99.90;;;;;;5105435;28;20055;-79
2022/12/12 07:06:37;;;;;;;33.00;23.60;;;-5.90;99.90;;;;;;5086428;28;20032;-79
2022/12/12 07:09:03;;;;;;;32.75;26.35;;;-5.90;99.90;;;;;;5087288;28;20040;-79
2022/12/12 07:11:29;;;;;;;40.88;28.65;;;-5.80;99.90;;;;;;5111234;28;20028;-79
2022/12/12 07:13:56;;;;;;;48.95;29.95;;;-5.90;99.90;;;;;;5117916;28;20099;-79
2022/12/12 07:16:22;;;;;;;44.50;27.77;;;-5.90;99.90;;;;;;5101008;28;20012;-79
2022/12/12 07:18:48;;;;;;;35.17;27.25;;;-5.80;99.90;;;;;;5121967;28;20036;-78
2022/12/12 07:21:17;;;;;;;35.35;25.35;;;-6.00;99.90;;;;;;5088122;28;20012;-78
2022/12/12 07:23:43;;;;;;;23.33;18.83;;;-6.00;99.90;;;;;;5104460;28;20048;-78
2022/12/12 07:26:16;;;;;;;33.05;25.63;;;-5.90;99.90;;;;;;5122240;28;20042;-79
2022/12/12 07:28:42;;;;;;;46.55;27.08;;;-5.90;99.90;;;;;;5087513;28;20032;-79
2022/12/12 07:31:11;;;;;;;40.33;26.10;;;-6.00;99.90;;;;;;5121617;28;20025;-79
2022/12/12 07:33:37;;;;;;;30.67;21.42;;;-6.20;99.90;;;;;;5104033;28;20057;-79
2022/12/12 07:36:03;;;;;;;32.80;25.75;;;-6.20;99.90;;;;;;5103376;28;20032;-78
2022/12/12 07:38:29;;;;;;;37.35;25.85;;;-6.10;99.90;;;;;;5089286;28;20048;-78
2022/12/12 07:40:56;;;;;;;30.17;23.13;;;-6.10;99.90;;;;;;5116962;28;20074;-77
2022/12/12 07:43:21;;;;;;;36.83;26.52;;;-6.00;99.90;;;;;;5104564;28;20030;-78
2022/12/12 07:45:47;;;;;;;39.97;24.77;;;-6.00;99.90;;;;;;5104709;28;20059;-78
2022/12/12 07:48:13;;;;;;;33.38;23.33;;;-6.00;99.90;;;;;;5102371;28;20060;-76
2022/12/12 07:50:40;;;;;;;25.52;21.02;;;-6.10;99.90;;;;;;5102440;28;20070;-78
2022/12/12 07:53:06;;;;;;;34.47;24.50;;;-6.20;99.90;;;;;;5081634;28;20031;-78
2022/12/12 07:55:33;;;;;;;31.17;22.48;;;-6.20;99.90;;;;;;5103935;28;20020;-78
2022/12/12 07:57:59;;;;;;;27.45;20.95;;;-6.30;99.90;;;;;;5116003;28;20051;-77
2022/12/12 08:00:25;;;;;;;28.00;21.40;;;-6.30;99.90;;;;;;5100652;28;20042;-78
2022/12/12 08:02:51;;;;;;;35.60;23.33;;;-6.30;99.90;;;;;;5121125;28;19996;-78
2022/12/12 08:05:17;;;;;;;34.35;22.98;;;-6.30;99.90;;;;;;5087211;28;20071;-78
2022/12/12 08:07:43;;;;;;;49.97;33.33;;;-6.20;99.90;;;;;;5102910;28;20034;-78
2022/12/12 08:10:10;;;;;;;32.85;29.05;;;-6.20;99.90;;;;;;5101703;28;20131;-78
2022/12/12 08:12:35;;;;;;;36.00;27.02;;;-6.00;99.90;;;;;;5121633;28;20023;-78
2022/12/12 08:15:01;;;;;;;34.83;25.08;;;-5.90;99.90;;;;;;5103686;28;20000;-78
2022/12/12 08:17:27;;;;;;;35.90;28.00;;;-5.80;99.90;;;;;;5121226;28;20012;-78
2022/12/12 08:19:54;;;;;;;37.72;27.40;;;-5.80;99.90;;;;;;5087464;28;20016;-78
2022/12/12 08:22:20;;;;;;;30.50;24.85;;;-5.60;99.90;;;;;;5103377;28;20008;-78
2022/12/12 08:24:47;;;;;;;43.15;28.30;;;-5.50;99.90;;;;;;5103226;28;20007;-79
2022/12/12 08:27:13;;;;;;;40.78;27.40;;;-5.20;99.90;;;;;;5082818;28;20023;-78
2022/12/12 08:29:41;;;;;;;36.05;24.65;;;-5.10;99.90;;;;;;5116865;28;20008;-78
2022/12/12 08:32:07;;;;;;;37.50;28.85;;;-4.90;99.90;;;;;;5085688;28;20100;-78
2022/12/12 08:34:33;;;;;;;36.70;28.17;;;-4.70;99.90;;;;;;5085594;28;20015;-78
2022/12/12 08:36:59;;;;;;;42.90;30.35;;;-4.20;99.90;;;;;;5100690;28;20075;-78
2022/12/12 08:39:25;;;;;;;33.50;28.67;;;-2.90;99.90;;;;;;5100448;28;20032;-78
2022/12/12 08:41:50;;;;;;;28.15;22.10;;;-1.00;99.90;;;;;;5098302;28;20475;-78
2022/12/12 08:44:19;;;;;;;37.85;25.20;;;0.90;99.90;;;;;;5112061;28;20088;-78
2022/12/12 08:46:45;;;;;;;29.65;22.95;;;2.70;99.90;;;;;;5092716;28;20024;-78
2022/12/12 08:49:12;;;;;;;24.58;18.38;;;4.20;99.90;;;;;;5111295;28;20056;-78
2022/12/12 08:51:39;;;;;;;23.02;20.05;;;5.70;99.90;;;;;;5093538;28;20044;-76
2022/12/12 08:54:05;;;;;;;20.08;15.18;;;6.40;99.90;;;;;;5093662;28;20020;-76
2022/12/12 08:56:30;;;;;;;22.13;16.63;;;7.10;99.90;;;;;;5095135;28;20024;-78
2022/12/12 08:58:57;;;;;;;25.92;17.02;;;7.60;99.90;;;;;;5112887;28;20024;-77
2022/12/12 09:01:25;;;;;;;20.33;17.45;;;7.10;99.90;;;;;;5111341;28;20024;-77
2022/12/12 09:03:53;;;;;;;18.98;14.50;;;7.30;99.90;;;;;;5110954;28;20044;-78
2022/12/12 09:06:19;;;;;;;18.23;13.50;;;7.90;99.90;;;;;;5078176;28;20028;-78
2022/12/12 09:08:46;;;;;;;16.35;11.18;;;8.50;99.90;;;;;;5110253;28;20038;-78
2022/12/12 09:11:12;;;;;;;17.10;13.40;;;8.30;99.90;;;;;;5109666;28;20032;-78
2022/12/12 09:13:38;;;;;;;14.82;11.20;;;7.90;99.90;;;;;;5109629;28;20051;-77
2022/12/12 09:16:06;;;;;;;14.25;12.57;;;8.10;99.90;;;;;;5109137;28;20017;-78
2022/12/12 09:18:32;;;;;;;20.02;12.50;;;8.70;99.90;;;;;;5081631;28;20561;-78
2022/12/12 09:20:58;;;;;;;18.65;16.63;;;8.60;99.70;;;;;;5071958;28;20020;-78
2022/12/12 09:23:25;;;;;;;15.80;12.38;;;8.30;99.90;;;;;;5107080;28;20035;-78
2022/12/12 09:25:52;;;;;;;20.65;12.68;;;8.90;99.00;;;;;;5088897;28;20100;-78
2022/12/12 09:28:20;;;;;;;15.80;11.38;;;9.90;98.00;;;;;;5072113;28;20032;-78
2022/12/12 09:30:48;;;;;;;12.35;9.85;;;10.30;99.90;;;;;;5106683;28;20078;-76
2022/12/12 09:33:15;;;;;;;10.65;9.15;;;10.30;97.30;;;;;;5088548;28;20035;-78
2022/12/12 09:35:41;;;;;;;14.77;7.88;;;9.70;97.30;;;;;;5106369;28;20016;-78
2022/12/12 09:38:07;;;;;;;13.18;10.20;;;10.40;96.50;;;;;;5088197;28;20044;-78
2022/12/12 09:40:46;;;;;;;10.07;8.43;;;9.50;96.10;;;;;;5087542;28;20032;-78
2022/12/12 09:43:33;;;;;;;13.40;8.43;;;9.60;96.40;;;;;;5088458;28;20082;-78
2022/12/12 09:46:01;;;;;;;10.40;9.27;;;9.40;96.80;;;;;;5086591;28;20437;-78
2022/12/12 09:48:45;;;;;;;10.80;8.07;;;9.50;96.40;;;;;;5104846;28;20073;-78
2022/12/12 09:51:13;;;;;;;8.18;6.55;;;11.00;95.70;;;;;;5094342;28;20078;-78
2022/12/12 09:53:42;;;;;;;13.45;11.80;;;11.10;95.00;;;;;;5106489;28;20436;-78
2022/12/12 09:56:22;;;;;;;12.25;9.45;;;10.30;95.40;;;;;;5106882;28;20035;-78
2022/12/12 09:58:56;;;;;;;10.35;9.05;;;11.40;94.30;;;;;;5051967;28;20047;-78
2022/12/12 10:01:35;;;;;;;11.75;8.13;;;11.70;94.30;;;;;;5100887;28;20027;-78
2022/12/12 10:04:23;;;;;;;14.13;9.32;;;11.90;93.50;;;;;;5106448;28;20020;-78
2022/12/12 10:06:54;;;;;;;15.10;9.13;;;13.20;92.40;;;;;;5105683;28;20091;-78
2022/12/12 10:09:38;;;;;;;10.52;7.88;;;13.60;92.20;;;;;;5105983;28;20462;-78
2022/12/12 10:12:10;;;;;;;13.27;8.02;;;12.10;92.70;;;;;;5091169;28;20046;-78
2022/12/12 10:14:47;;;;;;;10.65;7.93;;;11.30;93.20;;;;;;5106557;28;20028;-78
2022/12/12 10:17:20;;;;;;;11.20;7.82;;;12.20;93.00;;;;;;5106257;28;20459;-78
2022/12/12 10:19:53;;;;;;;9.85;7.72;;;12.60;92.50;;;;;;5088396;28;20016;-77
2022/12/12 10:22:45;;;;;;;10.77;7.00;;;11.60;92.80;;;;;;5087640;28;20089;-78
2022/12/12 10:25:36;;;;;;;11.90;8.82;;;12.20;92.90;;;;;;5105998;28;20053;-78
2022/12/12 10:28:13;;;;;;;14.75;10.40;;;13.10;92.20;;;;;;5087566;28;20056;-78
2022/12/12 10:31:14;;;;;;;13.65;10.02;;;13.40;91.20;;;;;;5071135;28;20028;-78
2022/12/12 10:33:52;;;;;;;8.95;7.85;;;13.80;91.00;;;;;;5101556;28;20047;-78
2022/12/12 10:36:34;;;;;;;9.10;7.05;;;13.30;91.00;;;;;;5105709;28;20047;-78
2022/12/12 10:39:06;;;;;;;9.15;5.70;;;13.50;90.60;;;;;;5067712;28;20037;-78
2022/12/12 10:41:47;;;;;;;16.73;10.75;;;12.60;91.30;;;;;;5103731;28;20028;-78
2022/12/12 10:44:49;;;;;;;10.20;5.88;;;12.50;91.70;;;;;;5088003;28;20024;-78
2022/12/12 10:47:15;;;;;;;10.00;9.00;;;12.30;92.10;;;;;;5071091;28;20036;-77
2022/12/12 10:49:41;;;;;;;12.10;8.20;;;11.80;92.60;;;;;;5087682;28;20088;-77
2022/12/12 10:52:25;;;;;;;10.27;7.53;;;11.30;93.10;;;;;;5090776;28;20451;-78
2022/12/12 10:54:57;;;;;;;10.35;8.57;;;10.00;93.90;;;;;;5092285;28;20126;-78
2022/12/12 10:57:25;;;;;;;13.85;7.88;;;8.70;95.60;;;;;;5091535;28;20024;-77
2022/12/12 10:59:58;;;;;;;13.82;8.18;;;7.30;97.10;;;;;;5109452;28;20433;-77
2022/12/12 11:02:38;;;;;;;12.93;8.05;;;7.00;97.80;;;;;;5109196;28;20036;-77
2022/12/12 11:05:16;;;;;;;10.15;8.55;;;7.00;97.50;;;;;;5110289;28;20039;-78
2022/12/12 11:07:45;;;;;;;13.13;10.52;;;7.30;97.80;;;;;;5091736;28;20028;-78
2022/12/12 11:10:24;;;;;;;9.65;8.75;;;7.50;97.80;;;;;;5109671;28;20028;-77
2022/12/12 11:12:59;;;;;;;9.48;6.85;;;8.00;97.70;;;;;;5083566;28;20043;-78
2022/12/12 11:15:37;;;;;;;10.10;8.25;;;8.10;97.10;;;;;;5109790;28;20052;-78
2022/12/12 11:18:03;;;;;;;12.85;8.43;;;7.80;97.30;;;;;;5091413;28;20024;-78
2022/12/12 11:20:29;;;;;;;11.48;7.70;;;7.10;98.10;;;;;;5091291;28;20028;-77
2022/12/12 11:22:56;;;;;;;12.02;8.48;;;6.70;98.60;;;;;;5109192;28;20051;-77
2022/12/12 11:25:28;;;;;;;9.23;6.93;;;6.50;99.10;;;;;;5109416;28;20077;-77
2022/12/12 11:27:58;;;;;;;13.15;9.88;;;6.30;99.60;;;;;;5109504;28;20032;-79
2022/12/12 11:30:42;;;;;;;8.73;6.72;;;6.50;99.60;;;;;;5091359;28;20115;-78
2022/12/12 11:33:18;;;;;;;10.77;7.80;;;6.50;99.60;;;;;;5070925;28;20028;-77
2022/12/12 11:35:44;;;;;;;8.05;7.25;;;6.80;99.40;;;;;;5083886;28;20028;-78
2022/12/12 11:38:39;;;;;;;7.55;5.93;;;7.00;98.70;;;;;;5109064;28;20044;-78
2022/12/12 11:41:09;;;;;;;12.63;8.95;;;6.60;98.90;;;;;;5089807;28;20054;-78
2022/12/12 11:43:47;;;;;;;9.32;8.30;;;6.30;98.90;;;;;;5109726;28;20020;-77
2022/12/12 11:46:13;;;;;;;11.27;7.05;;;5.90;99.90;;;;;;5091419;28;20052;-77
2022/12/12 11:48:41;;;;;;;12.32;7.75;;;5.50;99.90;;;;;;5074186;28;20040;-78
2022/12/12 11:51:08;;;;;;;8.57;7.68;;;5.30;99.90;;;;;;5090377;28;20092;-78
2022/12/12 11:53:42;;;;;;;11.15;9.40;;;5.30;99.90;;;;;;5090589;28;20104;-78
2022/12/12 11:56:48;;;;;;;15.05;9.98;;;5.10;99.90;;;;;;5090947;28;20057;-78
2022/12/12 11:59:17;;;;;;;12.98;9.07;;;4.90;99.90;;;;;;5078740;28;20119;-78
2022/12/12 12:02:30;;;;;;;15.50;8.32;;;4.20;99.90;;;;;;5090803;28;20032;-78
2022/12/12 12:05:27;;;;;;;11.40;7.90;;;4.30;99.90;;;;;;5032104;28;20040;-78
2022/12/12 12:08:24;;;;;;;14.73;9.05;;;4.80;99.90;;;;;;5108619;28;20114;-78
2022/12/12 12:10:53;;;;;;;17.92;10.85;;;5.10;99.90;;;;;;5088806;28;20032;-78
2022/12/12 12:13:23;;;;;;;17.65;11.23;;;5.10;99.90;;;;;;5053758;28;20024;-78
2022/12/12 12:15:51;;;;;;;13.60;8.48;;;5.20;99.90;;;;;;5070197;28;20082;-78
2022/12/12 12:18:48;;;;;;;9.93;7.82;;;5.40;99.90;;;;;;5070488;28;20033;-78
2022/12/12 12:21:34;;;;;;;8.90;7.78;;;5.00;99.90;;;;;;5072744;28;20056;-78
2022/12/12 12:24:15;;;;;;;14.95;9.68;;;4.70;99.90;;;;;;5097145;28;20049;-78
2022/12/12 12:27:09;;;;;;;9.07;8.20;;;4.70;99.90;;;;;;5073540;28;20028;-78
2022/12/12 12:29:57;;;;;;;14.50;10.38;;;5.30;99.90;;;;;;5070254;28;20387;-78
2022/12/12 12:32:48;;;;;;;9.52;8.60;;;5.20;99.90;;;;;;5101660;28;20031;-77
2022/12/12 12:35:19;;;;;;;;;;;5.00;99.90;;;;;;5086375;28;20034;-78
2022/12/12 12:38:22;;;;;;;10.73;9.48;;;5.50;99.90;;;;;;5107781;28;19916;-78
2022/12/12 12:40:58;;;;;;;10.70;9.57;;;5.40;99.90;;;;;;5101976;28;20032;-78
2022/12/12 12:43:41;;;;;;;11.13;8.63;;;5.10;99.90;;;;;;5108109;28;20040;-77
2022/12/12 12:46:20;;;;;;;9.98;9.07;;;5.20;99.90;;;;;;5089874;28;20043;-78
2022/12/12 12:48:55;;;;;;;12.18;9.77;;;5.60;99.90;;;;;;5070637;28;20039;-77
2022/12/12 12:51:39;;;;;;;24.42;11.95;;;5.30;99.90;;;;;;5107924;28;20047;-77
2022/12/12 12:54:20;;;;;;;11.80;10.60;;;5.60;99.90;;;;;;5107619;28;20024;-77
2022/12/12 12:57:08;;;;;;;13.77;11.25;;;5.60;99.90;;;;;;5108119;28;20028;-78
2022/12/12 12:59:58;;;;;;;13.10;11.05;;;5.80;99.90;;;;;;5108064;28;20111;-78
2022/12/12 13:02:40;;;;;;;14.60;10.70;;;5.80;99.90;;;;;;5089651;28;20028;-78
2022/12/12 13:05:25;;;;;;;15.05;12.45;;;5.60;99.90;;;;;;5089876;28;20039;-78
2022/12/12 13:07:58;;;;;;;14.90;11.75;;;5.50;99.90;;;;;;5107692;28;20039;-78